Warning: Javascript must be enabled to use all the features on this page!


Page Loading - Please Wait...

Click to hideNews Bulletins

Current Conditions for Wisconsin: Streamflow -- 267 site(s) found

PROVISIONAL DATA SUBJECT TO REVISION





Customize table to display other current-condition parameters
Station
Number
Station name Date/Time Gage
height,
feet
Dis-
charge,
ft3/s
Long-
term
median
flow
6/16
Group Undefined
05335450 NORTH FORK CLAM RIVER AT MALONE RD NEAR SIREN, WI  06/01 06:00 CDT 954.93 --     --- 
Group LAKE SUPERIOR BASIN
04024430 NEMADJI RIVER NEAR SOUTH SUPERIOR, WI  06/16 00:00 CDT -- 579 221 
      [Primary Stage]  06/16 00:00 CDT 7.14 --     --- 
04025500 BOIS BRULE RIVER AT BRULE, WI  06/16 00:00 CDT 2.04 199 165 
04026005 BOIS BRULE RIVER NEAR LAKE SUPERIOR, WI  06/16 00:30 CDT 5.21 246 175 
04026157 SISKIWIT RIVER AT CTY HWY C NEAR CORNUCOPIA, WI  10/28 13:00 CDT Dis Dis     --- 
04026160 SISKIWIT RIVER AT CORNUCOPIA, WI  06/16 00:00 CDT 3.63 6.99 7.00 
040263205 WHITTLESEY CREEK NEAR ASHLAND, WI  06/16 00:00 CDT 2.12 17.6 19.0 
04026390 BEARTRAP CREEK AT U.S. HIGHWAY 2 NEAR ASHLAND, WI  06/16 00:00 CDT 4.66 --     --- 
    10/08 09:45 CDT -- 14.0 3.00 
04026561 TYLER FORKS RIVER AT STRICKER ROAD NEAR MELLEN, WI  06/16 00:30 CDT 3.81 53.5 55.0 
040265935 MARENGO RIVER AT FOUR CORNERS RD NR MASON, WI  06/16 00:00 CDT 3.41 64.6     --- 
040265981 MARENGO RIVER AT RIEMER ROAD NR MARENGO, WI  06/16 00:00 CDT 6.14 77.5     --- 
04026740 MARENGO RIVER NEAR MELLEN, WI  06/16 00:00 CDT -- 157 90.0 
      [FINAL STAGE]  06/16 00:00 CDT 7.70 --     --- 
04027000 BAD RIVER NEAR ODANAH, WI  06/16 00:45 CDT 3.22 435 358 
04027500 WHITE RIVER NEAR ASHLAND, WI  06/16 00:35 CDT 0.95 238 234 
04027595 BAD RIVER AT ODANAH, WI  06/15 22:00 CDT 2.19 --     --- 
040276505 DENOMIE CREEK AT MAPLE STREET NEAR ODANAH, WI  06/16 00:00 CDT 5.60 --     --- 
    06/10 01:00 CDT -- 6.03 20.0 
463741090521301 ASHLAND BREAKWATER LIGHTHOUSE CHEQUAMEGON BAY, WI 
      [2 min ave (IGLD85)]  06/16 00:00 CDT 602.21 --     --- 
463836090423701 Kakagon River Slough near Odanah WI  06/15 22:00 CDT 10.14 --     --- 
464646092052900 SUPERIOR BAY DULUTH SHIP CANAL AT DULUTH, MN  10/01 00:55 CDT Dis Dis     --- 
Group MENOMINEE-OCONTO-PESHTIGO RIVER BASINS
04060993 BRULE RIVER AT US HIGHWAY 2 NEAR FLORENCE, WI  06/15 23:30 CST 3.66 262 338 
04062011 BRULE RIVER NEAR COMMONWEALTH, WI  06/15 23:30 CST 7.13 572 599 
04063000 MENOMINEE RIVER NEAR FLORENCE, WI  06/15 23:00 CST 3.46 969 1,750 
04063700 POPPLE RIVER NEAR FENCE, WI  06/16 00:45 CDT 2.26 63.2 121 
04064500 PINE RIVER BELOW PINE R POWERPLANT NR FLORENCE, WI  06/16 00:00 CDT 2.33 276 522 
04065106 MENOMINEE RIVER AT NIAGARA, WI  06/16 00:30 CDT 5.47 1,310 2,320 
04065722 MENOMINEE RIVER NEAR VULCAN, MI  06/15 23:00 CST 5.55 1,580 3,030 
04066003 MENOMINEE RIVER BELOW PEMENE CREEK NR PEMBINE, WI  06/16 00:00 CDT 7.38 1,550 3,150 
04066030 MENOMINEE RIVER AT WHITE RAPIDS DAM NEAR BANAT, MI  06/16 00:30 CDT 6.71 1,600 3,230 
04066500 PIKE RIVER AT AMBERG, WI  06/16 00:00 CDT 2.60 140 231 
04066800 MENOMINEE RIVER AT KOSS, MI  06/16 00:00 CDT 10.12 2,090 3,500 
04067500 MENOMINEE RIVER NEAR MC ALLISTER, WI  06/16 00:00 CDT 9.18 2,080 3,650 
04067958 PESHTIGO RIVER NEAR WABENO, WI  06/15 23:00 CDT 4.08 268 468 
04069416 PESHTIGO RIVER AT PORTERFIELD, WI  06/15 22:00 CDT 8.15 612 1,010 
04069500 PESHTIGO RIVER AT PESHTIGO, WI  06/16 00:00 CDT 1.94 696 922 
04071000 OCONTO RIVER NEAR GILLETT, WI  06/16 00:00 CDT 1.25 409 575 
04071765 OCONTO RIVER NEAR OCONTO, WI  06/16 00:00 CDT 4.57 448 732 
04072076 SILVER CREEK AT FLORIST DRIVE AT ONEIDA, WI  06/16 00:00 CDT 2.41 0.04 .82 
04072150 DUCK CREEK NEAR HOWARD, WI  06/16 00:00 CDT 11.49 15.4 35.0 
445322088281801 BERRY LAKE NEAR SHAWANO, WI  06/16 00:00 CDT 92.76 --     --- 
Group FOX-WOLF RIVER BASINS
04073240 CHAFFEE CREEK AT I-39 NEAR COLOMA, WI  06/16 00:00 CDT 3.64 12.3 13.0 
04073365 FOX RIVER AT PRINCETON, WI  06/16 00:00 CDT 5.74 1,010 1,200 
04073457 WUERCHES CREEK AT CT HWY B NEAR GREEN LAKE, WI  06/16 00:02 CDT 4.73 0.63     --- 
04073458 ROY CREEK AT ROY CREEK ROAD NEAR GREEN LAKE, WI  06/16 00:02 CDT 4.70 1.66 3.50 
040734605 GREEN LAKE SW INLET @ CT HIGHWY K NR GREEN LAKE,WI 
      [(2)]  06/16 00:00 CDT 6.72 --     --- 
      [(4)]  06/16 00:00 CDT -- 49.7 14.0 
04073462 WHITE CREEK AT SPRING GROVE ROAD NR GREEN LAKE, WI  06/16 00:00 CDT 4.40 4.66 3.10 
04073466 SILVER CREEK AT SPAULDING ROAD NEAR GREEN LAKE, WI  06/15 23:55 CDT -- 20.1 52.0 
      [Stage]  06/16 00:00 CDT 6.98 --     --- 
04073473 PUCHYAN RIVER DS N. LAWSON DRIVE NR GREEN LAKE, WI  06/16 00:00 CDT 7.57 107 74.0 
04073500 FOX RIVER AT BERLIN, WI  06/16 00:00 CDT 9.99 1,360 1,019 
04074950 WOLF RIVER AT LANGLADE, WI  06/16 00:00 CDT 7.94 369 470 
04077630 RED RIVER AT MORGAN ROAD NEAR MORGAN, WI  06/16 00:00 CDT 5.83 105 139 
04078500 EMBARRASS RIVER NEAR EMBARRASS, WI  06/16 00:00 CDT 3.26 290 291 
04079000 WOLF RIVER AT NEW LONDON, WI  06/16 00:00 CDT -- 2,680 1,980 
      [Primary Stage]  06/16 00:00 CDT 5.60 --     --- 
0407991001 Unk Trib to SB Little Wolf River nr Ogdensburg, WI  06/16 00:00 CDT 3.18 0.38     --- 
04080798 TOMORROW RIVER NEAR NELSONVILLE, WI  06/16 00:00 CDT 8.70 34.6 38.0 
04081500 WOLF RIVER AT WINNECONNE, WI  06/16 00:00 CDT 9.37 2,270     --- 
04082400 FOX RIVER AT OSHKOSH, WI  06/16 00:00 CDT 6.63 --     --- 
      [(4)]  06/16 00:00 CDT -- 4,410 6,170 
04082500 LAKE WINNEBAGO AT OSHKOSH, WI  06/16 00:00 CDT 3.27 --     --- 
04083545 FOND DU LAC RIVER @ W. ARNDT ST. AT FOND DU LAC,WI  06/16 00:00 CDT 3.20 235     --- 
04084255 LAKE WINNEBAGO NEAR STOCKBRIDGE, WI  06/16 00:00 CDT 3.16 --     --- 
04084445 FOX RIVER AT APPLETON, WI  06/16 00:00 CDT -- 5,210 5,020 
      [PIER]  06/16 00:00 CDT 5.65 --     --- 
04084911 PLUM CREEK NEAR WRIGHTSTOWN, WI  06/16 00:00 CDT 2.41 4.36 7.00 
04085068 ASHWAUBENON CREEK NEAR LITTLE RAPIDS, WI  06/16 00:00 CDT 3.00 1.28 4.40 
040850684 ASHWAUBENON CREEK AT GRANT ST NR WEST DEPERE, WI  06/16 00:00 CDT 3.84 3.44 8.30 
04085074 DUTCHMAN CREEK AT CYRUS ST NR ASHWAUBENON, WI  06/16 00:00 CDT 4.17 0.45 2.40 
04085078 DUTCHMAN CREEK AT HANSEN RD AT ASHWAUBENON, WI  06/16 00:00 CDT 4.41 3.33 5.70 
04085108 EAST RIVER @ CNTY TRUNK HIGHWAY ZZ NR GREENLEAF,WI  06/16 00:00 CDT -- 11.0 16.0 
      [BUBBLER Stage]  06/16 00:00 CDT 5.06 --     --- 
04085138 EAST RIVER AT GREEN BAY, WI  06/16 00:00 CDT 9.22 441     --- 
040851385 FOX RIVER AT OIL TANK DEPOT AT GREEN BAY, WI 
      [(2)]  06/16 00:00 CDT -- 7,710 6,450 
      [Stage IGLD85]  06/16 00:00 CDT 579.96 --     --- 
434840089000001 GREEN LAKE AT GREEN LAKE, WI  06/16 00:00 CDT 6.72 --     --- 
441520088045001 GLRI EAST RIVER WATERWAY 3 NEAR GREENLEAF, WI  06/15 23:00 CDT -0.01 --     --- 
      [COMBINED]  06/15 23:00 CDT -- 0.0000     --- 
441520088045002 GLRI EAST RIVER TILE 1 NEAR GREENLEAF, WI  10/01 00:45 CDT -- 0.00000 .030 
441546088082001 GLRI EAST RIVER WATERWAY NUMBER 2 NR GREENLEAF, WI  09/28 15:00 CDT 0.00 0.0000     --- 
441605088115701 TRT WETLAND TWO SURFACE INLET NR KAUKAUNA, WI  06/16 00:00 CDT -0.02 0.00     --- 
441605088115702 TRT WETLAND TWO DRAIN TILE INLET NR KAUKAUNA, WI  06/16 00:00 CDT 0.06 --     --- 
      [(2)]  06/16 00:00 CDT -- 0.00     --- 
441605088115703 TRT WETLAND TWO OUTLET NR KAUKAUNA, WI  06/16 00:00 CDT 699.68 --     --- 
      [FINAL Discharge]  06/16 00:00 CDT -- 0.01     --- 
      [OVERFLOW FLUME STAGE]  06/16 00:00 CDT 0.27 --     --- 
442114088085701 GLRI WATERWAY NUMBER 5 NR WRIGHTSTOWN, WI  06/16 00:00 CDT 0.04 --     --- 
      [FINAL]  06/16 00:00 CDT -- 0.0179     --- 
442119088085501 GLRI WATERWAY NUMBER 4 NR WRIGHTSTOWN, WI  06/16 00:00 CDT -0.01 --     --- 
      [COMBINED]  06/16 00:00 CDT -- 0.0000     --- 
444049087424302 GLRI BIOREACTOR INLET NR DUVALL,WI  06/16 00:01 CDT Eqp Eqp     --- 
444049087424303 GLRI BIOREACTOR OUTLET NR DUVALL, WI  06/16 00:01 CDT Eqp --     --- 
      [FIANL, PRIMARY]  06/16 00:01 CDT -- Eqp     --- 
Group LAKE MICHIGAN BASIN
04085200 KEWAUNEE RIVER NEAR KEWAUNEE, WI  06/16 00:00 CDT 9.03 53.9 46.0 
04085427 MANITOWOC RIVER AT MANITOWOC, WI  06/16 00:00 CDT 6.37 878 235 
04086000 SHEBOYGAN RIVER AT SHEBOYGAN, WI  06/16 00:00 CDT 2.59 316 147 
04086500 CEDAR CREEK NEAR CEDARBURG, WI  06/16 00:15 CDT 6.18 172 39.0 
04086600 MILWAUKEE RIVER NEAR CEDARBURG, WI  06/16 00:00 CDT 6.53 --     --- 
      [(3)]  06/16 00:00 CDT -- 625 374 
040869416 LINCOLN CREEK @ SHERMAN BOULEVARD AT MILWAUKEE, WI  06/16 00:00 CDT 3.66 4.69 4.40 
04087000 MILWAUKEE RIVER AT MILWAUKEE, WI 
      [(2)]  06/15 23:30 CDT -- 718 288 
      [15-min Average]  06/15 23:30 CDT 2.68 --     --- 
040870115 MILWAUKEE RIVER D/S E CHERRY ST AT MILWAUKEE, WI  11/09 11:00 CST 5.30 --     --- 
04087030 MENOMONEE RIVER AT MENOMONEE FALLS, WI  06/15 23:30 CDT -- 32.1 14.0 
04087050 LITTLE MENOMONEE RIVER NEAR FREISTADT, WI  06/16 00:00 CDT 2.27 5.08 2.70 
04087070 LITTLE MENOMONEE RIVER AT MILWAUKEE, WI  06/16 00:00 CDT 3.96 12.5 7.70 
0408708567 UNDERWOOD CREEK AT UNNAMED ROAD, ELM GROVE, WI  12/13 13:00 CST Dis Dis 4.80 
040870860 UNDERWOOD CREEK AT W BLUE MOUND RD, ELM GROVE, WI  12/13 12:45 CST Dis --     --- 
      [(3)]  12/13 12:45 CST -- Dis     --- 
04087087 UNDERWOOD CREEK AT 115TH STREET AT WAUWATOSA, WI  12/13 13:00 CST Dis Dis     --- 
040870876 UNDERWOOD CR ON BIKE PATH/Rt 100, WAUWATOSA, WI.  12/13 13:15 CST 2.69 --     --- 
    12/13 13:00 CST -- 7.86 8.30 
04087088 UNDERWOOD CREEK AT WAUWATOSA, WI  06/16 00:00 CDT 8.52 13.5 7.90 
04087119 HONEY CREEK AT WAUWATOSA, WI  06/16 00:00 CDT 9.75 2.62 4.80 
04087120 MENOMONEE RIVER AT WAUWATOSA, WI  06/15 23:55 CDT 2.17 87.5 42.0 
04087142 MENOMONEE RIVER AT 16TH STREET AT MILWAUKEE, WI  06/16 00:00 CDT 13.93 --     --- 
      [Q-Vel]  06/16 00:00 CDT -- 409 152 
040871473 WILSON PARK CREEK AT GMIA INFALL AT MILWAUKEE, WI  06/16 00:05 CDT 10.65 0.11 .37 
040871475 WILSON PARK CREEK @ GMIA OUTFALL 7 @ MILWAUKEE,WI  06/16 00:15 CDT 10.94 1.21 1.50 
040871476 HOLMES AVE CRK TRIB @ GMIA OUTFALL 1 AT MILWAUKEE  06/16 00:00 CDT 0.10 0.00     --- 
040871488 WILSON PARK CK @ ST. LUKES HOSPITAL @ MILWAUKEE,WI  06/16 00:10 CDT 11.15 4.24 7.10 
04087159 KINNICKINNIC RIVER @ S. 11TH STREET @ MILWAUKEE,WI  06/16 00:00 CDT 6.12 5.37 9.30 
04087161 KINNICKINNIC RIVER AT S. 1ST ST AT MILWAUKEE, WI  05/04 09:25 CDT 7.06 --     --- 
04087170 MILWAUKEE RIVER AT MOUTH AT MILWAUKEE, WI  06/16 00:00 CDT 9.49 --     --- 
      [FINAL]  06/16 00:00 CDT -- 4,070 572 
04087204 OAK CREEK AT SOUTH MILWAUKEE, WI  06/16 00:30 CDT 2.43 8.07 8.60 
04087214 ROOT RIVER AT GRANGE AVENUE AT GREENDALE, WI  06/16 00:30 CDT 10.61 2.93 5.80 
04087220 ROOT RIVER NEAR FRANKLIN, WI  06/16 00:00 CDT 2.07 13.0 18.0 
04087233 ROOT RIVER CANAL NEAR FRANKLIN, WI  06/16 00:00 CDT 2.48 20.4 21.0 
04087234 ROOT RIVER AT 60TH ST NEAR CALEDONIA, WI  06/16 00:00 CDT 4.07 28.0 33.0 
04087240 ROOT RIVER AT RACINE, WI  06/16 00:00 CDT 2.67 55.0 70.0 
04087257 PIKE RIVER NEAR RACINE, WI  06/16 00:00 CDT 1.37 13.2 20.0 
425514088055201 EAST 12-IN WETLAND INLET NR CORNELL DR MUSKEGO, WI  06/16 00:02 CDT 0.00 --     --- 
425514088055301 CENTER 15IN WETLAND INLET NR CORNELL DR MUSKEGO WI 
      [ACOUSTIC]  06/16 00:02 CDT 0.00 --     --- 
425514088055601 WEST 18-IN WETLAND INLET NR CORNELL DR MUSKEGO, WI 
      [ACOUSTIC]  06/16 00:02 CDT 0.01 --     --- 
430528087571001 GREEN TECH BIOFILTER OUTLET AT MILWAUKEE, WI  06/16 00:02 CDT 0.00 --     --- 
430529087571001 GREEN TECH BIOFILTER INLET AT MILWAUKEE, WI  06/16 00:02 CDT 0.00 --     --- 
442155087330001 DISCOVERY FARMS WATERWAY KD2 NEAR KEWAUNEE, WI  06/16 00:00 CDT 0.00 0.0000     --- 
442405087414401 DISCOVERY FARMS WATERWAY KD1 NEAR KEWAUNEE, WI  06/16 00:00 CDT -- 0.0000     --- 
      [BUBBLER]  06/16 00:00 CDT 0.00 --     --- 
Group ST. CROIX RIVER BASIN
05331833 NAMEKAGON RIVER AT LEONARDS, WI  06/16 00:00 CDT 2.06 173 138 
05333500 ST. CROIX RIVER NEAR DANBURY, WI  06/16 00:00 CDT 2.03 1,940 1,260 
05335492 CLAM RIVER AT HWY 35 NR WEBSTER, WI  06/16 00:00 CDT 7.40 --     --- 
05340500 ST. CROIX RIVER AT ST. CROIX FALLS, WI  06/16 00:00 CDT 5.33 8,020 4,110 
05341498 APPLE RIVER ABOVE 05341499 AT PARK IN SOMERSET, WI  06/16 00:00 CDT 5.22 660     --- 
05341752 WILLOW RIVER @ WILLOW R STATE PARK NR BURKHARDT,WI  01/08 09:00 CST Dis Dis 169 
05342000 KINNICKINNIC RIVER NEAR RIVER FALLS, WI  06/16 00:00 CDT 8.86 207 108 
05344490 ST. CROIX RIVER AT PRESCOTT, WI  06/16 00:15 CDT 32.48 9,400 5,180 
05344500 MISSISSIPPI RIVER AT PRESCOTT, WI  06/16 00:15 CDT 32.42 --     --- 
    06/16 00:00 CDT -- 66,700 24,000 
Group CHIPPEWA RIVER BASIN
05356000 CHIPPEWA RIVER AT BISHOPS BRIDGE NEAR WINTER, WI  06/16 00:00 CDT 6.12 1,530 614 
05356500 CHIPPEWA RIVER NEAR BRUCE, WI  06/16 00:00 CDT 3.93 2,500 1,200 
05357206 ALLEQUASH CREEK SITE NO. 3 NR BOULDER JUNCTION, WI 
      [DOWNSTREAM]  06/16 00:00 CDT -- Dis 4.00 
      [Gage Height]  06/16 00:00 CDT Dis --     --- 
05357215 ALLEQUASH CREEK @ CT HWY M NR BOULDER JUNCTION, WI  06/16 00:00 CDT -- Dis 11.0 
      [Gage Height]  06/16 00:00 CDT Dis --     --- 
05357225 STEVENSON CREEK @ CT HWY M NR BOULDER JUNCTION, WI  02/05 09:00 CST -- Dis 2.90 
      [Gage Height]  02/05 09:00 CST Dis --     --- 
05357230 NORTH CREEK AT TROUT LAKE NEAR BOULDER JUNCTION,WI  02/05 11:00 CST -- Dis 3.80 
      [Gage Height]  02/05 11:00 CST Dis --     --- 
05357245 TROUT RIVER AT TROUT LAKE NEAR BOULDER JUNCTION,WI  06/16 00:00 CDT -- Dis 49.0 
      [Gage Height]  06/16 00:00 CDT Dis --     --- 
05357335 BEAR RIVER NEAR MANITOWISH WATERS, WI  06/16 00:15 CDT 4.06 139 79.0 
05359500 SOUTH FORK FLAMBEAU RIVER NEAR PHILLIPS, WI  06/16 00:45 CDT 6.24 739 651 
05360500 FLAMBEAU RIVER NEAR BRUCE, WI  06/15 23:00 CDT 7.06 2,240 1,760 
05362000 JUMP RIVER AT SHELDON, WI  06/16 00:00 CDT 4.02 343 280 
05363600 NF YELLOW R AT YELLOW RIVER RD NR PERKINSTOWN, WI  06/16 00:00 CDT -- Dis 47.0 
      [Gage height, feet , Averaged]  06/16 00:00 CDT 8.85 --     --- 
05364128 DRYWOOD CREEK AT COVERED FOOTBRIDGE NR CADOTT, WI  06/15 23:00 CST 4.62 24.1 12.0 
05365500 CHIPPEWA RIVER AT CHIPPEWA FALLS, WI  06/16 00:00 CDT 6.32 6,460 5,030 
05365550 CHIPPEWA RIVER BELOW DELLS DAM AT EAU CLAIRE, WI  06/16 00:00 CDT -- 6,870     --- 
      [RADAR]  06/16 00:00 CDT 6.83 --     --- 
05366800 CHIPPEWA R AT GRAND AVE AT EAU CLAIRE, WI  06/16 00:00 CDT 6.04 7,510 6,230 
05367500 RED CEDAR RIVER NEAR COLFAX, WI  06/16 00:00 CDT 3.03 961 719 
05368000 HAY RIVER AT WHEELER, WI  06/16 00:00 CDT 4.61 473 304 
05369000 RED CEDAR RIVER AT MENOMONIE, WI  06/16 00:00 CDT 7.20 1,570 1,270 
05369500 CHIPPEWA RIVER AT DURAND, WI  06/16 00:00 CDT 4.82 8,770 7,210 
05370000 EAU GALLE RIVER AT SPRING VALLEY, WI  06/16 00:45 CDT 12.92 39.7 23.0 
Group TREMPEALEAU-BLACK-LA CROSSE RIVER BASINS
05378500 MISSISSIPPI RIVER AT WINONA, MN  06/16 00:45 CDT 10.86 91,500 39,500 
05379400 TREMPEALEAU RIVER AT ARCADIA, WI  06/16 00:00 CDT -- 462 375 
      [Current Stage]  06/16 00:00 CDT 3.66 --     --- 
05379500 TREMPEALEAU RIVER AT DODGE, WI  06/16 00:00 CDT 666.98 526 418 
      [Current Stage]  06/16 00:00 CDT 5.79 --     --- 
05381000 BLACK RIVER AT NEILLSVILLE, WI  06/16 00:00 CDT 3.60 255 280 
053813595 BLACK RIVER DS ST HWY 54 AT BLACK RIVER FALLS, WI  06/16 00:00 CDT 36.87 1,000 1,280 
05382000 BLACK RIVER NEAR GALESVILLE, WI  06/16 00:00 CDT -- 1,330 1,290 
      [Final Stage]  06/16 00:00 CDT 4.41 --     --- 
05382255 STILLWELL CREEK AT SIXTEENTH COURT NEAR TOMAH, WI  06/16 00:00 CDT 1.34 1.90 2.30 
05382257 STILLWELL CREEK AT YARD ROAD NEAR TOMAH, WI  06/16 00:00 CDT 1.73 1.53 3.00 
05382267 LA CROSSE RIVER @ CNTY TRUNK HIGHWY BB NR TOMAH,WI  06/16 00:00 CDT 6.18 87.6 92.0 
05382284 SILVER CREEK AT STATE HIGHWAY 21 NEAR ANGELO, WI  06/15 23:45 CDT 5.95 42.1 50.0 
05382325 LA CROSSE RIVER AT SPARTA, WI  06/16 00:15 CDT 3.90 163 176 
05383075 LA CROSSE RIVER NEAR LA CROSSE, WI  06/16 00:00 CDT 3.04 446 484 
05386400 MISSISSIPPI RIVER AT BROWNSVILLE, MN  06/16 00:45 CDT 33.43 --     --- 
05389500 Mississippi River at McGregor, IA  10/29 23:45 CDT 7.71 --     --- 
      [stage-only period of record]  06/16 00:45 CDT 14.76 --     --- 
Group WISCONSIN RIVER BASIN
05390100 LAC VIEUX DESERT NEAR LAND O'LAKES, WI  06/15 23:45 CDT 80.48 --     --- 
05390500 ANVIL LAKE NEAR EAGLE RIVER, WI 
      [(2)]  06/16 00:30 CDT 93.31 --     --- 
05391000 WISCONSIN RIVER @ RAINBOW LAKE NR LAKE TOMAHAWK,WI  06/16 00:00 CDT 1.86 567 590 
05393500 SPIRIT RIVER AT SPIRIT FALLS, WI  06/16 00:30 CDT 1.85 43.3 51.0 
05394500 PRAIRIE RIVER NEAR MERRILL, WI  06/16 00:00 CDT 2.53 154 158 
05395000 WISCONSIN RIVER AT MERRILL, WI  06/16 00:00 CDT 4.94 2,170 2,310 
05396000 BIG RIB RIVER AT RIB FALLS, WI  06/16 00:00 CDT 2.46 123 127 
05397500 EAU CLAIRE RIVER AT KELLY, WI  06/16 00:00 CDT 0.74 159 211 
05398000 WISCONSIN RIVER AT ROTHSCHILD, WI  06/16 00:00 CDT 13.77 --     --- 
      [SLOPE-SLPQ]  06/16 00:00 CDT -- 2,740 3,140 
05398100 WISCONSIN RIVER AT MOSINEE, WI  06/16 00:00 CDT 11.79 --     --- 
05399500 BIG EAU PLEINE RIVER AT STRATFORD, WI  06/16 00:00 CDT 2.78 48.8 45.0 
05400625 LITTLE PLOVER RIVER NEAR PLOVER, WI  06/16 00:00 CDT 3.40 7.66 8.60 
05400760 WISCONSIN RIVER AT WISCONSIN RAPIDS, WI  06/16 00:30 CDT 3.38 --     --- 
      [(2)]  06/16 00:00 CDT -- 5,260     --- 
05401034 S.BR.TENMILE CREEK NEAR BANCROFT, WI  06/16 00:00 CDT 3.72 14.1 13.0 
05401050 TENMILE CREEK NEAR NEKOOSA, WI  06/16 00:00 CDT 5.52 134 73.0 
05401063 LAKE HURON NEAR PLAINFIELD, WI  06/16 00:00 CDT 95.16 --     --- 
05401065 LONG LAKE NEAR PLAINFIELD, WI  06/16 00:45 CDT 14.68 --     --- 
05401514 BIG ROCHE A CRI CREEK AT HWY G NR LEOLA, WI  06/16 00:00 CDT 4.83 24.2 28.0 
05402000 YELLOW RIVER AT BABCOCK, WI  06/16 00:00 CDT 3.28 162     --- 
05403000 YELLOW RIVER AT NECEDAH, WI  06/16 00:00 CDT 10.30 461 360 
05403202 WISCONSIN R BELOW CASTLE ROCK DAM NR MAUSTON, WI  06/16 00:45 CDT 12.05 --     --- 
05403500 LEMONWEIR RIVER AT NEW LISBON, WI  06/16 00:00 CDT 5.25 392 234 
05404000 WISCONSIN RIVER NEAR WISCONSIN DELLS, WI  06/16 00:00 CDT 4.03 7,640 7,830 
05404129 BARABOO RIVER AT LA VALLE, WI  06/16 00:00 CDT 6.04 --     --- 
05404140 W BRANCH BIG CREEK AT CLARK RD NR LA VALLE, WI  06/16 00:00 CDT 2.89 6.04 6.10 
05404147 BIG CREEK OUTLET AT LAKE REDSTONE NR LA VALLE, WI  06/15 23:45 CDT 2.68 19.3 19.0 
05404150 E BRANCH BIG CREEK AT LAVALLE RD NR LA VALLE, WI  06/16 00:00 CDT Dis Dis 3.40 
054041665 BARABOO RIVER AT MAIN STREET AT REEDSBURG, WI  06/16 00:00 CDT 6.08 --     --- 
05404500 DEVILS LAKE NEAR BARABOO, WI  06/16 00:00 CDT 8.44 --     --- 
05405000 BARABOO RIVER NEAR BARABOO, WI  06/16 00:00 CDT 8.41 392 317 
05406457 BLACK EARTH CREEK NR BREWERY RD AT CROSS PLAINS,WI  06/16 00:00 CDT 2.02 12.1 14.0 
05406469 BREWERY CREEK-UPSTREAM SITE-AT CROSS PLAINS, WI  06/16 00:00 CDT 2.54 4.29 3.30 
05406479 BLACK EARTH CK NR TREATMENT PLNT @ CROSS PLAINS,WI  06/16 00:00 CDT 3.21 45.8 28.0 
05406500 BLACK EARTH CREEK AT BLACK EARTH, WI  06/16 00:00 CDT 2.24 68.9 36.0 
05407000 WISCONSIN RIVER AT MUSCODA, WI  06/16 00:00 CDT -- 12,300 10,100 
      [FINAL]  06/16 00:00 CDT 3.05 --     --- 
05407468 KICKAPOO R @ ST HWY 131 AT ONTARIO, WI  06/16 00:00 CDT 8.68 76.1 81.0 
05408000 KICKAPOO RIVER AT LA FARGE, WI  06/16 00:00 CDT 3.35 199 167 
05410490 KICKAPOO RIVER AT STEUBEN, WI  06/16 00:45 CDT 6.67 586 530 
433821090063801 DISCOVERY FARMS WATERWAY RS2 NEAR MAUSTON, WI  10/02 09:45 CDT -0.00 0.0000     --- 
433939090050501 DISCOVERY FARMS WATERWAY RS1 NEAR MAUSTON, WI  10/02 09:45 CDT Dis Dis     --- 
435857089325301 PLEASANT LAKE NEAR WESTFIELD, WI  06/16 00:00 CDT 12.33 --     --- 
445557090090601 DISCOVERY FARMS WATERWAY MT3 NEAR MILAN, WI  06/16 00:01 CDT 0.00 0.00     --- 
450157090060701 DISCOVERY FARMS WATERWAY MT1 NEAR ATHENS, WI 
      [PRIMARY, BUBBLER]  06/16 00:01 CDT 0.00 --     --- 
      [PRIMARY]  06/16 00:01 CDT -- 0.0000     --- 
451021089064901 DISCOVERY FARMS WATERWAY AO1 NEAR ANTIGO, WI  06/16 00:00 CDT -0.00 0.0000     --- 
451207089041801 DISCOVERY FARMS WATERWAY AO2 NEAR ANTIGO, WI  06/16 00:00 CDT -0.00 0.0000     --- 
451337089035401 DISCOVERY FARMS WATERWAY AO3 NEAR ANTIGO, WI  06/16 00:00 CDT -0.00 0.0000     --- 
Group GRANT-PLATTE-GALENA RIVER BASINS
05411500 Mississippi River at Clayton, IA  06/16 00:45 CDT 16.76 --     --- 
05413500 GRANT RIVER AT BURTON, WI  06/16 00:15 CDT -- 165 143 
      [PRIMARY STAGE]  06/16 00:15 CDT 5.35 --     --- 
05414000 PLATTE RIVER NEAR ROCKVILLE, WI  06/16 00:00 CDT -- 166 90.0 
      [Primary Stage]  06/16 00:00 CDT 4.55 --     --- 
Group ROCK RIVER BASIN
05423500 SOUTH BRANCH ROCK RIVER AT WAUPUN, WI  06/16 00:00 CDT 2.50 39.1 22.0 
05424057 ROCK RIVER AT HORICON, WI  06/16 00:00 CDT 7.00 --     --- 
      [PRIMARY, Q-Vel]  06/16 00:00 CDT -- 1,070 423 
05424157 ROCK RIVER NEAR LEBANON, WI  06/16 00:00 CDT 10.42 2,290     --- 
05425500 ROCK RIVER AT WATERTOWN, WI  06/16 00:00 CDT 4.48 2,670 364 
05425912 BEAVERDAM RIVER AT BEAVER DAM, WI  06/16 00:00 CDT 841.00 355 50.0 
05426000 CRAWFISH RIVER AT MILFORD, WI  06/15 23:45 CDT 6.65 2,330 310 
05426031 ROCK RIVER AT JEFFERSON, WI  06/16 00:00 CDT 9.29 --     --- 
05426067 BARK RIVER AT NAGAWICKA ROAD AT DELAFIELD, WI  06/16 00:00 CDT 12.79 39.9 35.0 
05426250 BARK RIVER NEAR ROME, WI  06/16 00:00 CDT 2.39 127 82.0 
05427085 ROCK RIVER AT FORT ATKINSON, WI  06/16 00:00 CDT 15.61 5,770 2,410 
05427235 LAKE KOSHKONONG NEAR NEWVILLE, WI  06/16 00:00 CDT 9.87 --     --- 
05427530 ROCK RIVER AT NEWVILLE, WI  06/16 00:00 CDT 6.04 --     --- 
      [(4)]  06/16 00:00 CDT -- 6,480 2,410 
05427718 YAHARA RIVER AT WINDSOR, WI  06/16 00:10 CDT 2.18 29.3 21.0 
05427850 YAHARA RIVER AT STATE HIGHWAY 113 AT MADISON, WI  06/16 00:00 CDT 10.83 --     --- 
      [(4)]  06/16 00:00 CDT -- 51.0 72.0 
05427880 SIXMILE CREEK AT STATE HIGHWAY 19 NEAR WAUNAKEE,WI  06/16 00:00 CDT 3.49 23.7 12.0 
05427905 SIXMILE CREEK AT WOODLAND DRIVE NEAR WAUNAKEE, WI  06/16 00:00 CDT 7.20 --     --- 
      [PRIMARY]  06/16 00:00 CDT -- 18.0     --- 
05427910 SIXMILE CREEK @ COUNTY TRNK HGHWY M NR WAUNAKEE,WI  06/16 00:00 CDT 10.94 --     --- 
      [PRIMARY]  05/01 11:05 CDT -- Mnt 23.0 
05427927 DORN (SPRING) CREEK @ CT HIGHWAY Q NR WAUNAKEE, WI  06/16 00:00 CDT 0.80 14.8 5.80 
05427930 DORN (SPRING) CREEK AT CT HIGHWAY M NR WAUNAKEE,WI  06/16 00:00 CDT 11.04 --     --- 
      [(4)]  06/16 00:00 CDT -- 26.4 8.80 
05427943 PHEASANT BRANCH AT AIRPORT ROAD NEAR MIDDLETON, WI  06/16 00:00 CDT 4.25 0.63 1.80 
054279465 S FORK PHEASANT BRANCH @ DEMING WAY @ MIDDLETON,WI  06/16 00:00 CDT 2.28 0.46 1.60 
05427948 PHEASANT BRANCH AT MIDDLETON, WI  06/16 00:00 CDT 3.56 3.21 3.00 
05427965 SPRING HARBOR STORM SEWER AT MADISON, WI  06/16 00:00 CDT -- 0.31 .21 
      [BUBBLER]  06/16 00:00 CDT 0.48 --     --- 
05428000 LAKE MENDOTA AT MADISON, WI 
      [(4)]  06/16 00:00 CDT 10.71 --     --- 
05428500 YAHARA RIVER AT EAST MAIN STREET AT MADISON, WI  06/16 00:00 CDT 6.20 155 147 
05429000 LAKE MONONA AT MADISON, WI  06/16 00:00 CDT Eqp --     --- 
05429369 SWAN CREEK AT LALOR ROAD NEAR FITCHBURG, WI  06/16 00:00 CDT 5.70 3.48 1.30 
05429485 LAKE WAUBESA AT MC FARLAND, WI  06/16 00:15 CDT 5.61 --     --- 
05429500 YAHARA RIVER AT MC FARLAND, WI 
      [(5)]  06/16 00:00 CDT -- 402 150 
05429700 YAHARA RIVER @ FORTON STREET BRIDGE @ STOUGHTON,WI  06/16 00:00 CDT 6.34 467 283 
05430150 BADFISH CREEK NEAR COOKSVILLE, WI  06/16 00:00 CDT 5.13 140 118 
05430175 YAHARA RIVER NEAR FULTON, WI  06/16 00:00 CDT 5.54 481 418 
05430500 ROCK RIVER AT AFTON, WI  06/16 00:00 CDT 9.34 7,530 1,700 
05431016 JACKSON CREEK AT MOUND ROAD NEAR ELKHORN, WI  06/16 00:00 CDT 8.43 5.46 8.00 
05431022 DELAVAN LAKE OUTLET AT BORG ROAD NEAR DELAVAN, WI  06/16 00:00 CDT 5.20 1.92     --- 
05431486 TURTLE CREEK AT CARVERS ROCK ROAD NEAR CLINTON, WI  06/16 00:00 CDT 3.88 139 99.0 
05432500 PECATONICA RIVER AT DARLINGTON, WI  06/16 00:00 CDT 4.70 331 178 
05433000 EAST BRANCH PECATONICA RIVER NR BLANCHARDVILLE, WI  06/16 00:00 CDT 5.71 233 139 
05434500 PECATONICA RIVER AT MARTINTOWN, WI  06/16 00:00 CDT 8.34 1,330 714 
05435943 BADGER MILL CREEK AT VERONA, WI  06/16 00:00 CDT -- 15.0 14.0 
      [Current Stage]  06/16 00:00 CDT 4.50 --     --- 
05435950 SUGAR RIVER NEAR VERONA, WI  06/16 00:00 CDT 3.36 74.3 74.0 
05436500 SUGAR RIVER NEAR BRODHEAD, WI  06/16 00:00 CDT 1.86 545 295 
05438283 PISCASAW CREEK NEAR WALWORTH, WI  06/16 00:00 CDT 5.53 2.62 3.60 
425715089164700 LAKE KEGONSA AT BARBER DRIVE NEAR STOUGHTON, WI  06/16 00:00 CDT 3.74 --     --- 
430338089295701 DETENTION POND OUTLET AT MEMORIAL HS @ MADISON, WI  06/15 23:59 CDT 0.66 --     --- 
    06/15 23:58 CDT -- 0.64     --- 
Group ILLINOIS-FOX RIVER BASINS
05543830 FOX RIVER AT WAUKESHA, WI  06/16 00:00 CDT 3.50 164 81.0 
05544200 MUKWONAGO RIVER AT MUKWONAGO, WI  06/16 00:00 CDT 2.16 26.3 43.0 
05544348 FOX RIVER AT WATERFORD DAM, AT WATERFORD, WI  06/15 23:45 CDT 1.70 --     --- 
05544385 MUSKEGO (BIG MUSKEGO) LAKE OUTLET NR WIND LAKE, WI 
      HEADWATER, [Headwater]  06/16 00:45 CDT 11.73 --     --- 
      TAILWATER (BASE), [Tailwater]  06/16 00:45 CDT 8.87 --     --- 
05544475 FOX RIVER AT ROCHESTER, WI  06/16 00:45 CDT 4.93 --     --- 
055451345 WHITE RIVER AT CENTER STREET AT LAKE GENEVA, WI  06/15 23:55 CDT 8.21 --     --- 
    06/15 23:00 CDT -- 31.7 46.0 
05545750 FOX RIVER NEAR NEW MUNSTER, WI  06/16 00:00 CDT 7.350 743 614 
423000088164401 ELIZABETH LAKE AT TWIN LAKES, WI-IL 
      [Above NAVD88]  06/15 23:30 CST 794.33 --     --- 
423525088260400 GENEVA LAKE AT LAKE GENEVA, WI  06/16 00:00 CDT 2.49 --     --- 
424848088083100 WIND LAKE AT OUTLET AT WIND LAKE, WI 
      HEADWATER, [Headwater]  06/16 00:00 CDT 8.37 --     --- 
      TAILWATER, [Tailwater]  06/16 00:00 CDT 5.25 --     --- 

Data status codes:
  --     Parameter not determined
  Dis     Data-collection discontinued
  Eqp     Equipment malfunction
  Mnt     Maintenance in progress